createdAt,value
2018-05-21T00:01:23.426Z,77.30
2018-05-21T00:03:00.639Z,77.00
2018-05-21T00:04:37.081Z,77.10
2018-05-21T00:06:14.272Z,77.90
2018-05-21T00:07:57.040Z,78.00
2018-05-21T00:09:33.431Z,77.20
2018-05-21T00:11:10.081Z,77.30
2018-05-21T00:12:47.155Z,77.30
2018-05-21T00:14:58.429Z,77.10
2018-05-21T00:16:35.732Z,77.00
2018-05-21T00:18:14.298Z,76.90
2018-05-21T00:19:51.544Z,78.70
2018-05-21T00:21:30.161Z,80.10
2018-05-21T00:23:06.950Z,79.90
2018-05-21T00:24:43.807Z,77.70
2018-05-21T00:26:53.852Z,77.70
2018-05-21T00:28:32.467Z,77.60
2018-05-21T00:30:13.226Z,78.10
2018-05-21T00:31:55.577Z,76.90
2018-05-21T00:33:33.358Z,76.80
2018-05-21T00:35:09.748Z,77.00
2018-05-21T00:36:46.002Z,77.60
2018-05-21T00:38:22.781Z,79.10
2018-05-21T00:39:59.532Z,78.90
2018-05-21T00:41:36.757Z,80.00
2018-05-21T00:43:13.097Z,79.30
2018-05-21T00:44:50.331Z,79.20
2018-05-21T00:46:26.883Z,78.90
2018-05-21T00:48:03.757Z,79.00
2018-05-21T00:49:40.488Z,78.50
2018-05-21T00:51:23.168Z,79.40
2018-05-21T00:53:01.952Z,79.00
2018-05-21T00:54:47.131Z,81.90
2018-05-21T00:56:24.921Z,81.90
2018-05-21T00:58:03.367Z,82.10
2018-05-21T00:59:42.964Z,82.10
2018-05-21T01:01:20.494Z,80.30
2018-05-21T01:02:57.306Z,81.50
2018-05-21T01:04:33.877Z,81.60
2018-05-21T01:06:15.946Z,81.80
2018-05-21T01:07:53.843Z,81.80
2018-05-21T01:09:31.046Z,82.20
2018-05-21T01:11:07.585Z,82.80
2018-05-21T01:12:43.995Z,82.70
2018-05-21T01:14:20.342Z,82.90
2018-05-21T01:15:57.235Z,82.20
2018-05-21T01:17:34.115Z,82.60
2018-05-21T01:19:11.303Z,83.50
2018-05-21T01:20:47.792Z,83.50
2018-05-21T01:22:24.462Z,84.80
2018-05-21T01:24:01.119Z,85.80
2018-05-21T01:25:37.404Z,84.70
2018-05-21T01:27:15.855Z,85.20
2018-05-21T01:28:55.795Z,85.20
2018-05-21T01:30:32.715Z,84.50
2018-05-21T01:32:09.101Z,85.10
2018-05-21T01:33:45.586Z,86.10
2018-05-21T01:35:22.989Z,83.90
2018-05-21T01:37:00.002Z,88.60
2018-05-21T01:38:36.396Z,89.40
2018-05-21T01:40:13.489Z,85.80
2018-05-21T01:44:22.337Z,86.20
2018-05-21T01:45:59.354Z,85.10
2018-05-21T01:47:36.203Z,84.60
2018-05-21T01:49:12.481Z,83.90
2018-05-21T01:50:49.622Z,88.60
2018-05-21T01:52:25.931Z,86.50
2018-05-21T01:54:02.642Z,84.50
2018-05-21T01:55:39.772Z,84.70
2018-05-21T01:57:16.743Z,84.90
2018-05-21T01:58:53.614Z,84.90
2018-05-21T02:00:30.845Z,86.60
2018-05-21T02:02:07.190Z,85.00
2018-05-21T02:03:43.466Z,85.00
2018-05-21T02:05:19.825Z,85.50
2018-05-21T02:06:56.670Z,84.80
2018-05-21T02:08:33.057Z,86.00
2018-05-21T02:10:09.925Z,85.20
2018-05-21T02:11:46.166Z,84.30
2018-05-21T02:13:22.998Z,84.80
2018-05-21T02:14:59.333Z,85.90
2018-05-21T02:16:35.876Z,84.50
2018-05-21T02:18:12.275Z,84.50
2018-05-21T02:19:51.010Z,86.30
2018-05-21T02:21:27.560Z,86.30
2018-05-21T02:23:08.998Z,85.00
2018-05-21T02:24:46.277Z,84.70
2018-05-21T02:26:23.047Z,84.80
2018-05-21T02:27:59.356Z,88.00
2018-05-21T02:29:36.107Z,86.10
2018-05-21T02:31:12.464Z,85.40
2018-05-21T02:32:49.487Z,85.80
2018-05-21T02:34:26.125Z,86.50
2018-05-21T02:36:03.754Z,87.30
2018-05-21T02:37:40.426Z,87.80
2018-05-21T02:39:17.152Z,88.40
2018-05-21T02:40:54.076Z,86.80
2018-05-21T02:42:30.522Z,87.00
2018-05-21T02:44:07.841Z,85.80
2018-05-21T02:45:44.875Z,85.80
2018-05-21T02:47:21.311Z,86.20
2018-05-21T02:48:57.668Z,86.10
2018-05-21T02:50:34.049Z,86.20
2018-05-21T02:52:11.454Z,86.80
2018-05-21T02:53:47.730Z,86.80
2018-05-21T02:55:24.138Z,86.80
2018-05-21T02:57:01.060Z,87.80
2018-05-21T02:58:37.726Z,87.80
2018-05-21T03:00:16.758Z,87.90
2018-05-21T03:01:54.655Z,88.00
2018-05-21T03:03:31.777Z,88.70
2018-05-21T03:05:09.825Z,88.70
2018-05-21T03:06:46.073Z,89.10
2018-05-21T03:08:22.763Z,89.60
2018-05-21T03:10:02.365Z,89.80
2018-05-21T03:11:39.040Z,90.20
2018-05-21T03:13:15.302Z,90.20
2018-05-21T03:14:51.950Z,90.40
2018-05-21T03:16:28.896Z,90.60
2018-05-21T03:18:05.338Z,90.90
2018-05-21T03:19:41.747Z,90.70
2018-05-21T03:21:18.289Z,90.10
2018-05-21T03:22:54.838Z,90.00
2018-05-21T03:24:31.409Z,89.10
2018-05-21T03:26:07.828Z,90.10
2018-05-21T03:27:44.052Z,90.30
2018-05-21T03:29:21.127Z,89.10
2018-05-21T03:30:58.321Z,89.10
2018-05-21T03:32:34.770Z,89.60
2018-05-21T03:34:11.123Z,90.20
2018-05-21T03:35:47.467Z,90.50
2018-05-21T03:37:24.414Z,90.00
2018-05-21T03:39:01.413Z,89.40
2018-05-21T03:40:37.645Z,89.40
2018-05-21T03:42:14.606Z,89.50
2018-05-21T03:43:51.530Z,89.50
2018-05-21T03:45:28.017Z,90.20
2018-05-21T03:47:04.483Z,88.60
2018-05-21T03:48:41.240Z,88.80
2018-05-21T03:50:17.933Z,89.90
2018-05-21T03:51:58.543Z,87.50
2018-05-21T03:53:35.102Z,87.20
2018-05-21T03:55:11.353Z,87.30
2018-05-21T03:56:48.045Z,85.80
2018-05-21T03:58:37.415Z,84.70
2018-05-21T04:01:28.941Z,84.30
2018-05-21T04:03:33.346Z,83.30
2018-05-21T04:05:09.910Z,82.50
2018-05-21T04:06:46.636Z,81.20
2018-05-21T04:08:23.460Z,80.30
2018-05-21T04:09:59.953Z,80.90
2018-05-21T04:11:36.750Z,80.40
2018-05-21T04:13:16.481Z,80.50
2018-05-21T04:14:54.328Z,80.50
2018-05-21T04:16:30.866Z,79.40
2018-05-21T04:18:07.417Z,78.30
2018-05-21T04:19:43.882Z,77.10
2018-05-21T04:21:22.959Z,75.70
2018-05-21T04:23:00.421Z,75.70
2018-05-21T04:24:46.922Z,74.40
2018-05-21T04:26:26.060Z,74.80
2018-05-21T04:28:05.266Z,74.90
2018-05-21T04:29:44.127Z,74.70
2018-05-21T04:31:20.806Z,74.90
2018-05-21T04:32:57.596Z,75.40
2018-05-21T04:34:33.945Z,75.50
2018-05-21T04:36:10.282Z,74.30
2018-05-21T04:37:46.988Z,72.10
2018-05-21T04:39:23.631Z,71.00
2018-05-21T04:41:00.403Z,71.40
2018-05-21T04:42:37.278Z,70.30
2018-05-21T04:44:14.037Z,68.30
2018-05-21T04:45:51.241Z,66.40
2018-05-21T04:47:27.553Z,65.00
2018-05-21T04:49:03.862Z,66.00
2018-05-21T04:50:40.117Z,63.60
2018-05-21T04:52:16.874Z,66.40
2018-05-21T04:53:53.221Z,65.20
2018-05-21T04:55:29.499Z,64.20
2018-05-21T04:57:06.009Z,64.60
2018-05-21T04:58:42.989Z,64.70
2018-05-21T05:00:20.923Z,64.70
2018-05-21T05:01:57.539Z,63.20
2018-05-21T05:03:34.605Z,61.90
2018-05-21T05:05:11.368Z,60.60
2018-05-21T05:06:49.399Z,60.10
2018-05-21T05:08:25.872Z,60.10
2018-05-21T05:10:02.214Z,59.20
2018-05-21T05:11:40.205Z,63.00
2018-05-21T05:13:16.704Z,63.00
2018-05-21T05:14:55.679Z,61.40
2018-05-21T05:16:32.396Z,62.10
2018-05-21T05:18:10.010Z,62.60
2018-05-21T05:19:46.615Z,62.60
2018-05-21T05:21:24.060Z,63.40
2018-05-21T05:23:00.369Z,63.60
2018-05-21T05:24:37.917Z,67.70
2018-05-21T05:26:14.276Z,67.70
2018-05-21T05:27:50.681Z,68.10
2018-05-21T05:29:27.000Z,68.90
2018-05-21T05:31:03.995Z,68.60
2018-05-21T05:32:40.282Z,69.10
2018-05-21T05:34:16.625Z,68.50
2018-05-21T05:35:52.956Z,67.90
2018-05-21T05:37:29.741Z,67.20
2018-05-21T05:39:08.367Z,65.70
2018-05-21T05:40:45.038Z,65.60
2018-05-21T05:42:21.960Z,66.80
2018-05-21T05:43:58.777Z,67.00
2018-05-21T05:45:35.467Z,65.20
2018-05-21T05:47:11.844Z,67.60
2018-05-21T05:48:48.160Z,68.20
2018-05-21T05:50:28.610Z,69.10
2018-05-21T05:52:05.014Z,68.90
2018-05-21T05:53:41.452Z,69.90
2018-05-21T05:55:18.355Z,71.30
2018-05-21T05:56:55.075Z,70.50
2018-05-21T05:58:31.746Z,70.80
2018-05-21T06:00:09.019Z,71.30
2018-05-21T06:01:45.729Z,71.10
2018-05-21T06:03:23.062Z,71.30
2018-05-21T06:04:59.587Z,72.10
2018-05-21T06:06:36.014Z,72.80
2018-05-21T06:08:12.403Z,71.90
2018-05-21T06:09:49.531Z,73.10
2018-05-21T06:11:27.118Z,72.90
2018-05-21T06:13:03.900Z,73.10
2018-05-21T06:14:40.282Z,72.80
2018-05-21T06:16:17.890Z,74.10
2018-05-21T06:17:54.223Z,74.90
2018-05-21T06:19:30.678Z,76.20
2018-05-21T06:21:07.261Z,77.80
2018-05-21T06:22:44.074Z,78.60
2018-05-21T06:24:21.372Z,79.80
2018-05-21T06:25:57.769Z,80.70
2018-05-21T06:27:34.147Z,80.00
2018-05-21T06:29:11.104Z,78.90
2018-05-21T06:30:48.122Z,77.10
2018-05-21T06:32:24.926Z,78.10
2018-05-21T06:34:01.297Z,77.90
2018-05-21T06:35:40.357Z,79.30
2018-05-21T06:37:17.812Z,79.80
2018-05-21T06:38:56.239Z,80.00
2018-05-21T06:40:34.403Z,80.40
2018-05-21T06:42:11.320Z,80.60
2018-05-21T06:43:48.229Z,80.60
2018-05-21T06:45:24.649Z,80.70
2018-05-21T06:47:01.118Z,79.00
2018-05-21T06:48:38.097Z,79.10
2018-05-21T06:50:14.675Z,79.00
2018-05-21T06:51:55.046Z,79.10
2018-05-21T06:53:32.403Z,77.70
2018-05-21T06:55:09.951Z,76.60
2018-05-21T06:56:46.236Z,76.60
2018-05-21T06:58:25.171Z,75.10
2018-05-21T07:00:01.633Z,73.40
2018-05-21T07:01:39.630Z,74.20
2018-05-21T07:03:17.091Z,72.70
2018-05-21T07:04:54.115Z,72.90
2018-05-21T07:06:30.515Z,74.00
2018-05-21T07:08:08.006Z,73.80
2018-05-21T07:09:44.316Z,74.90
2018-05-21T07:11:20.674Z,75.00
2018-05-21T07:12:57.002Z,74.90
2018-05-21T07:14:33.960Z,75.10
2018-05-21T07:16:10.558Z,73.90
2018-05-21T07:17:47.733Z,74.30
2018-05-21T07:19:24.887Z,76.30
2018-05-21T07:21:01.930Z,76.30
2018-05-21T07:22:38.226Z,74.90
2018-05-21T07:24:15.401Z,74.60
2018-05-21T07:25:51.754Z,74.70
2018-05-21T07:27:28.470Z,74.20
2018-05-21T07:29:05.643Z,70.20
2018-05-21T07:30:42.285Z,70.20
2018-05-21T07:32:18.542Z,69.50
2018-05-21T07:33:55.779Z,70.50
2018-05-21T07:35:32.806Z,69.70
2018-05-21T07:37:09.266Z,66.20
2018-05-21T07:38:46.610Z,66.20
2018-05-21T07:40:22.887Z,66.10
2018-05-21T07:41:59.427Z,65.80
2018-05-21T07:43:36.573Z,65.40
2018-05-21T07:45:13.576Z,65.40
2018-05-21T07:46:50.057Z,67.10
2018-05-21T07:48:26.892Z,66.10
2018-05-21T07:50:03.305Z,65.70
2018-05-21T07:51:40.106Z,65.30
2018-05-21T07:53:17.152Z,64.80
2018-05-21T07:54:54.615Z,64.80
2018-05-21T07:56:31.116Z,65.50
2018-05-21T07:58:08.033Z,64.70
2018-05-21T07:59:44.377Z,63.40
2018-05-21T08:01:21.597Z,63.90
2018-05-21T08:02:58.623Z,65.50
2018-05-21T08:04:36.740Z,67.10
2018-05-21T08:06:14.966Z,68.50
2018-05-21T08:07:51.595Z,65.90
2018-05-21T08:09:27.907Z,64.90
2018-05-21T08:11:05.526Z,61.10
2018-05-21T08:12:42.406Z,61.00
2018-05-21T08:14:18.875Z,62.60
2018-05-21T08:15:55.406Z,61.50
2018-05-21T08:17:32.686Z,64.70
2018-05-21T08:19:10.094Z,65.70
2018-05-21T08:20:46.403Z,65.70
2018-05-21T08:22:23.221Z,64.00
2018-05-21T08:23:59.964Z,64.40
2018-05-21T08:25:36.949Z,64.50
2018-05-21T08:27:14.090Z,65.60
2018-05-21T08:28:50.366Z,65.60
2018-05-21T08:30:27.081Z,66.40
2018-05-21T08:32:04.095Z,65.50
2018-05-21T08:33:40.401Z,66.20
2018-05-21T08:35:17.545Z,66.30
2018-05-21T08:36:54.427Z,66.40
2018-05-21T08:38:30.693Z,63.30
2018-05-21T08:40:07.123Z,66.00
2018-05-21T08:41:43.647Z,64.80
2018-05-21T08:43:21.305Z,65.50
2018-05-21T08:44:58.221Z,63.50
2018-05-21T08:46:34.574Z,64.50
2018-05-21T08:48:11.939Z,66.10
2018-05-21T08:49:48.875Z,66.10
2018-05-21T08:51:25.168Z,66.30
2018-05-21T08:53:02.281Z,66.20
2018-05-21T08:54:38.684Z,65.90
2018-05-21T08:56:15.559Z,67.80
2018-05-21T08:57:52.136Z,66.30
2018-05-21T08:59:28.570Z,63.30
2018-05-21T09:01:05.372Z,60.90
2018-05-21T09:02:42.878Z,63.10
2018-05-21T09:04:19.097Z,63.10
2018-05-21T09:05:56.004Z,63.30
2018-05-21T09:07:33.299Z,64.60
2018-05-21T09:09:11.865Z,65.40
2018-05-21T09:10:48.152Z,65.40
2018-05-21T09:12:25.413Z,66.40
2018-05-21T09:14:01.674Z,65.70
2018-05-21T09:15:38.671Z,65.50
2018-05-21T09:17:15.859Z,65.70
2018-05-21T09:18:53.017Z,65.40
2018-05-21T09:20:29.656Z,65.40
2018-05-21T09:22:06.902Z,66.10
2018-05-21T09:23:44.108Z,63.80
2018-05-21T09:25:20.432Z,63.80
2018-05-21T09:26:57.070Z,63.00
2018-05-21T09:28:33.777Z,63.60
2018-05-21T09:30:13.493Z,64.20
2018-05-21T09:31:49.883Z,64.20
2018-05-21T09:33:27.041Z,63.10
2018-05-21T09:35:03.704Z,63.10
2018-05-21T09:36:41.841Z,63.50
2018-05-21T09:38:19.585Z,63.10
2018-05-21T09:39:56.723Z,61.00
2018-05-21T09:41:33.836Z,61.10
2018-05-21T09:43:10.560Z,61.10
2018-05-21T09:44:47.694Z,60.10
2018-05-21T09:46:25.431Z,60.10
2018-05-21T09:48:02.327Z,61.70
2018-05-21T09:49:50.603Z,62.60
2018-05-21T09:51:27.158Z,62.60
2018-05-21T09:53:03.677Z,61.60
2018-05-21T09:54:40.505Z,61.00
2018-05-21T09:56:17.004Z,59.90
2018-05-21T09:57:53.631Z,61.40
2018-05-21T09:59:31.228Z,61.10
2018-05-21T10:01:08.375Z,61.50
2018-05-21T10:02:44.822Z,60.80
2018-05-21T10:04:21.140Z,58.30
2018-05-21T10:05:57.457Z,56.70
2018-05-21T10:07:34.133Z,56.60
2018-05-21T10:09:10.819Z,56.80
2018-05-21T10:10:47.245Z,56.80
2018-05-21T10:12:25.187Z,56.40
2018-05-21T10:14:02.447Z,56.40
2018-05-21T10:15:39.125Z,55.70
2018-05-21T10:17:15.506Z,56.70
2018-05-21T10:18:51.862Z,56.90
2018-05-21T10:20:28.594Z,56.70
2018-05-21T10:22:05.355Z,55.60
2018-05-21T10:23:42.120Z,56.90
2018-05-21T10:25:20.057Z,55.10
2018-05-21T10:26:56.455Z,55.10
2018-05-21T10:28:32.802Z,54.50
2018-05-21T10:30:18.582Z,54.20
2018-05-21T10:31:55.000Z,55.10
2018-05-21T10:33:32.481Z,55.40
2018-05-21T10:35:09.053Z,55.40
2018-05-21T10:36:45.810Z,55.60
2018-05-21T10:38:23.503Z,53.40
2018-05-21T10:40:01.023Z,54.10
2018-05-21T10:41:37.429Z,54.10
2018-05-21T10:43:14.292Z,54.90
2018-05-21T10:44:51.045Z,54.10
2018-05-21T10:46:28.216Z,55.90
2018-05-21T10:48:05.483Z,56.40
2018-05-21T10:49:42.706Z,54.80
2018-05-21T10:51:19.228Z,54.80
2018-05-21T10:52:55.897Z,54.00
2018-05-21T10:54:32.205Z,53.20
2018-05-21T10:56:08.654Z,53.10
2018-05-21T10:57:45.793Z,52.50
2018-05-21T10:59:22.929Z,52.30
2018-05-21T11:00:59.611Z,52.50
2018-05-21T11:02:35.897Z,53.00
2018-05-21T11:04:12.473Z,51.50
2018-05-21T11:05:49.336Z,51.50
2018-05-21T11:07:25.646Z,52.70
2018-05-21T11:09:02.006Z,51.70
2018-05-21T11:10:38.558Z,52.30
2018-05-21T11:12:14.890Z,51.30
2018-05-21T11:13:51.205Z,52.10
2018-05-21T11:15:27.958Z,51.20
2018-05-21T11:17:04.292Z,51.90
2018-05-21T11:18:41.014Z,51.80
2018-05-21T11:20:17.314Z,51.70
2018-05-21T11:21:54.373Z,51.40
2018-05-21T11:23:31.576Z,51.40
2018-05-21T11:25:08.457Z,51.30
2018-05-21T11:26:45.546Z,49.20
2018-05-21T11:28:22.989Z,49.20
2018-05-21T11:30:00.201Z,49.20
2018-05-21T11:31:38.026Z,49.00
2018-05-21T11:33:14.425Z,49.90
2018-05-21T11:34:50.784Z,48.90
2018-05-21T11:36:27.256Z,48.60
2018-05-21T11:38:04.148Z,48.90
2018-05-21T11:39:41.690Z,49.40
2018-05-21T11:41:18.588Z,48.80
2018-05-21T11:42:55.817Z,47.10
2018-05-21T11:44:32.520Z,47.10
2018-05-21T11:46:09.271Z,47.90
2018-05-21T11:47:45.661Z,47.80
2018-05-21T11:49:22.376Z,47.00
2018-05-21T11:51:00.068Z,47.60
2018-05-21T11:52:36.464Z,47.50
2018-05-21T11:54:12.857Z,46.50
2018-05-21T11:55:49.226Z,47.30
2018-05-21T11:57:25.822Z,47.30
2018-05-21T11:59:02.351Z,47.30
2018-05-21T12:00:39.159Z,46.50
2018-05-21T12:02:15.518Z,47.50
2018-05-21T12:03:53.137Z,44.90
2018-05-21T12:05:29.656Z,44.70
2018-05-21T12:07:06.102Z,44.40
2018-05-21T12:08:42.423Z,44.90
2018-05-21T12:10:20.288Z,45.30
2018-05-21T12:11:56.523Z,45.20
2018-05-21T12:13:33.722Z,45.70
2018-05-21T12:15:10.150Z,45.70
2018-05-21T12:16:47.934Z,46.10
2018-05-21T12:18:24.327Z,44.30
2018-05-21T12:20:00.665Z,44.20
2018-05-21T12:21:37.935Z,43.30
2018-05-21T12:23:15.159Z,43.70
2018-05-21T12:24:51.698Z,44.70
2018-05-21T12:26:28.389Z,44.60
2018-05-21T12:28:04.673Z,45.30
2018-05-21T12:29:43.548Z,46.10
2018-05-21T12:31:21.414Z,46.70
2018-05-21T12:32:58.079Z,45.40
2018-05-21T12:34:34.407Z,45.80
2018-05-21T12:36:11.282Z,44.90
2018-05-21T12:37:48.480Z,42.50
2018-05-21T12:39:25.139Z,42.50
2018-05-21T12:41:01.659Z,44.40
2018-05-21T12:42:39.806Z,42.50
2018-05-21T12:44:17.626Z,42.20
2018-05-21T12:45:55.677Z,42.30
2018-05-21T12:47:34.588Z,42.30
2018-05-21T12:49:23.366Z,42.60
2018-05-21T12:51:00.563Z,42.10
2018-05-21T12:52:38.571Z,42.40
2018-05-21T12:54:15.139Z,42.40
2018-05-21T12:55:51.951Z,42.10
2018-05-21T12:57:28.815Z,41.70
2018-05-21T12:59:05.324Z,40.20
2018-05-21T13:00:41.823Z,41.60
2018-05-21T13:02:18.294Z,42.10
2018-05-21T13:03:54.875Z,40.90
2018-05-21T13:05:31.574Z,40.20
2018-05-21T13:07:08.072Z,40.30
2018-05-21T13:08:44.911Z,41.10
2018-05-21T13:10:21.475Z,39.20
2018-05-21T13:11:58.343Z,40.00
2018-05-21T13:13:35.431Z,41.20
2018-05-21T13:15:13.852Z,41.10
2018-05-21T13:16:50.625Z,41.90
2018-05-21T13:18:28.342Z,41.50
2018-05-21T13:20:04.925Z,41.30
2018-05-21T13:21:42.402Z,40.80
2018-05-21T13:23:18.801Z,40.70
2018-05-21T13:24:55.158Z,41.30
2018-05-21T13:26:31.602Z,41.80
2018-05-21T13:28:08.113Z,41.80
2018-05-21T13:29:44.424Z,41.10
2018-05-21T13:31:21.881Z,40.70
2018-05-21T13:32:58.459Z,39.80
2018-05-21T13:34:35.329Z,39.80
2018-05-21T13:36:11.651Z,41.00
2018-05-21T13:37:48.772Z,41.20
2018-05-21T13:39:28.649Z,41.20
2018-05-21T13:41:05.785Z,41.40
2018-05-21T13:42:42.098Z,41.20
2018-05-21T13:44:19.242Z,42.20
2018-05-21T13:45:56.115Z,42.20
2018-05-21T13:47:34.101Z,42.10
2018-05-21T13:49:10.398Z,43.00
2018-05-21T13:50:47.898Z,42.50
2018-05-21T13:52:24.406Z,42.80
2018-05-21T13:54:01.961Z,41.00
2018-05-21T13:55:38.624Z,41.00
2018-05-21T13:57:14.939Z,41.70
2018-05-21T13:58:52.852Z,42.10
2018-05-21T14:00:29.885Z,41.70
2018-05-21T14:02:06.363Z,42.80
2018-05-21T14:03:44.085Z,42.40
2018-05-21T14:05:20.390Z,42.30
2018-05-21T14:06:58.570Z,42.10
2018-05-21T14:08:34.970Z,42.10
2018-05-21T14:10:11.945Z,42.80
2018-05-21T14:11:49.084Z,42.90
2018-05-21T14:13:26.280Z,42.90
2018-05-21T14:15:04.637Z,42.90
2018-05-21T14:16:41.065Z,42.80
2018-05-21T14:18:17.425Z,41.80
2018-05-21T14:19:54.222Z,42.40
2018-05-21T14:21:31.690Z,42.60
2018-05-21T14:23:08.208Z,42.70
2018-05-21T14:24:44.637Z,42.40
2018-05-21T14:26:21.350Z,42.20
2018-05-21T14:27:57.617Z,43.30
2018-05-21T14:29:34.060Z,43.60
2018-05-21T14:31:10.640Z,44.10
2018-05-21T14:32:49.028Z,44.30
2018-05-21T14:34:26.299Z,44.40
2018-05-21T14:36:03.169Z,43.80
2018-05-21T14:37:39.566Z,43.90
2018-05-21T14:39:15.901Z,44.20
2018-05-21T14:40:52.309Z,44.40
2018-05-21T14:42:29.067Z,43.80
2018-05-21T14:44:05.418Z,44.10
2018-05-21T14:45:42.732Z,44.10
2018-05-21T14:47:19.191Z,44.90
2018-05-21T14:49:03.946Z,44.30
2018-05-21T14:50:41.510Z,44.60
2018-05-21T14:52:18.190Z,45.20
2018-05-21T14:53:54.469Z,45.10
2018-05-21T14:55:30.980Z,45.50
2018-05-21T14:57:07.314Z,46.10
2018-05-21T14:58:45.656Z,45.60
2018-05-21T15:00:22.624Z,45.50
2018-05-21T15:02:00.332Z,44.90
2018-05-21T15:03:38.577Z,45.40
2018-05-21T15:05:16.030Z,46.30
2018-05-21T15:06:54.675Z,47.20
2018-05-21T15:08:31.435Z,47.70
2018-05-21T15:10:07.777Z,47.20
2018-05-21T15:11:45.409Z,47.60
2018-05-21T15:13:22.092Z,47.60
2018-05-21T15:14:58.406Z,47.90
2018-05-21T15:16:34.828Z,47.40
2018-05-21T15:18:11.699Z,47.60
2018-05-21T15:19:48.036Z,48.20
2018-05-21T15:21:24.495Z,48.10
2018-05-21T15:23:01.077Z,47.20
2018-05-21T15:24:38.027Z,46.80
2018-05-21T15:26:15.225Z,47.20
2018-05-21T15:27:51.599Z,47.40
2018-05-21T15:29:28.975Z,48.00
2018-05-21T15:31:07.206Z,48.00
2018-05-21T15:32:44.381Z,47.00
2018-05-21T15:34:20.836Z,47.60
2018-05-21T15:35:57.226Z,47.70
2018-05-21T15:37:37.529Z,48.00
2018-05-21T15:39:13.891Z,48.10
2018-05-21T15:40:50.275Z,47.40
2018-05-21T15:42:27.534Z,47.30
2018-05-21T15:44:04.539Z,48.20
2018-05-21T15:45:43.462Z,48.90
2018-05-21T15:48:51.929Z,48.40
2018-05-21T15:50:29.631Z,47.90
2018-05-21T15:52:06.863Z,48.30
2018-05-21T15:53:43.217Z,48.30
2018-05-21T15:55:19.721Z,45.80
2018-05-21T15:56:57.322Z,47.10
2018-05-21T15:58:34.569Z,47.30
2018-05-21T16:00:10.976Z,47.30
2018-05-21T16:01:47.322Z,48.10
2018-05-21T16:03:24.713Z,48.30
2018-05-21T16:05:01.049Z,48.30
2018-05-21T16:06:37.517Z,49.00
2018-05-21T16:08:13.815Z,48.90
2018-05-21T16:09:50.662Z,49.40
2018-05-21T16:11:27.225Z,49.30
2018-05-21T16:13:03.564Z,49.10
2018-05-21T16:14:39.841Z,49.20
2018-05-21T16:16:16.734Z,49.30
2018-05-21T16:17:53.848Z,49.50
2018-05-21T16:19:31.143Z,49.40
2018-05-21T16:21:07.446Z,49.80
2018-05-21T16:22:44.669Z,49.80
2018-05-21T16:24:21.006Z,49.20
2018-05-21T16:25:57.310Z,48.60
2018-05-21T16:27:33.851Z,48.40
2018-05-21T16:29:10.598Z,47.40
2018-05-21T16:30:47.915Z,48.90
2018-05-21T16:32:24.299Z,48.80
2018-05-21T16:34:00.718Z,48.00
2018-05-21T16:35:37.659Z,48.60
2018-05-21T16:37:14.741Z,49.40
2018-05-21T16:38:51.176Z,49.40
2018-05-21T16:40:27.628Z,49.10
2018-05-21T16:42:05.220Z,49.40
2018-05-21T16:43:41.543Z,49.50
2018-05-21T16:45:19.585Z,48.90
2018-05-21T16:46:56.053Z,49.40
2018-05-21T16:48:33.090Z,50.20
2018-05-21T16:50:09.946Z,49.40
2018-05-21T16:51:46.965Z,49.80
2018-05-21T16:53:23.471Z,49.80
2018-05-21T16:55:01.069Z,49.10
2018-05-21T16:56:37.409Z,49.10
2018-05-21T16:58:13.860Z,49.30
2018-05-21T16:59:50.161Z,49.20
2018-05-21T17:01:27.247Z,48.60
2018-05-21T17:03:03.630Z,48.30
2018-05-21T17:04:40.751Z,48.70
2018-05-21T17:06:17.113Z,48.70
2018-05-21T17:07:54.349Z,49.00
2018-05-21T17:09:31.765Z,48.50
2018-05-21T17:11:08.167Z,48.60
2018-05-21T17:12:44.586Z,49.30
2018-05-21T17:14:21.318Z,49.20
2018-05-21T17:15:58.076Z,49.50
2018-05-21T17:17:34.862Z,49.80
2018-05-21T17:19:12.418Z,49.90
2018-05-21T17:20:49.264Z,50.00
2018-05-21T17:22:26.048Z,50.60
2018-05-21T17:24:02.577Z,50.10
2018-05-21T17:25:39.800Z,50.00
2018-05-21T17:27:16.594Z,50.00
2018-05-21T17:28:53.913Z,49.60
2018-05-21T17:30:30.674Z,49.90
2018-05-21T17:32:07.021Z,49.80
2018-05-21T17:33:44.554Z,49.70
2018-05-21T17:35:21.740Z,50.40
2018-05-21T17:36:59.687Z,50.40
2018-05-21T17:38:36.357Z,50.50
2018-05-21T17:40:12.979Z,50.60
2018-05-21T17:41:50.173Z,50.60
2018-05-21T17:43:26.478Z,50.60
2018-05-21T17:45:02.775Z,50.50
2018-05-21T17:46:40.746Z,50.60
2018-05-21T17:48:17.064Z,50.50
2018-05-21T17:49:53.693Z,50.50
2018-05-21T17:51:31.474Z,50.60
2018-05-21T17:53:08.105Z,50.60
2018-05-21T17:54:44.501Z,50.90
2018-05-21T17:56:22.522Z,50.50
2018-05-21T17:57:59.585Z,50.70
2018-05-21T17:59:36.638Z,50.70
2018-05-21T18:01:13.400Z,50.50
2018-05-21T18:02:49.800Z,50.60
2018-05-21T18:04:26.229Z,51.10
2018-05-21T18:06:02.944Z,50.90
2018-05-21T18:07:39.669Z,50.60
2018-05-21T18:09:15.991Z,50.80
2018-05-21T18:10:53.181Z,51.10
2018-05-21T18:12:29.897Z,51.10
2018-05-21T18:14:06.497Z,50.90
2018-05-21T18:15:43.895Z,50.50
2018-05-21T18:17:28.132Z,50.60
2018-05-21T18:19:05.624Z,50.60
2018-05-21T18:20:43.138Z,50.60
2018-05-21T18:22:19.914Z,51.20
2018-05-21T18:23:57.786Z,51.00
2018-05-21T18:25:35.909Z,51.40
2018-05-21T18:27:13.373Z,51.40
2018-05-21T18:28:50.403Z,51.60
2018-05-21T18:30:28.598Z,51.60
2018-05-21T18:32:06.228Z,52.40
2018-05-21T18:33:43.946Z,52.10
2018-05-21T18:35:21.200Z,52.20
2018-05-21T18:36:57.577Z,51.90
2018-05-21T18:38:34.556Z,51.90
2018-05-21T18:40:11.013Z,51.90
2018-05-21T18:41:48.271Z,52.10
2018-05-21T18:43:24.584Z,52.10
2018-05-21T18:45:01.347Z,52.30
2018-05-21T18:46:38.457Z,52.10
2018-05-21T18:48:14.757Z,52.00
2018-05-21T18:49:51.875Z,52.10
2018-05-21T18:51:28.789Z,51.90
2018-05-21T18:53:05.196Z,51.80
2018-05-21T18:54:42.222Z,52.20
2018-05-21T18:56:19.426Z,52.00
2018-05-21T18:57:58.195Z,51.40
2018-05-21T18:59:35.517Z,51.70
2018-05-21T19:01:13.486Z,51.70
2018-05-21T19:02:50.737Z,51.40
2018-05-21T19:04:27.387Z,51.40
2018-05-21T19:06:09.389Z,51.30
2018-05-21T19:07:46.079Z,51.50
2018-05-21T19:09:22.616Z,51.50
2018-05-21T19:11:00.214Z,51.50
2018-05-21T19:12:36.749Z,51.50
2018-05-21T19:14:13.161Z,51.40
2018-05-21T19:15:49.866Z,51.50
2018-05-21T19:17:27.601Z,51.90
2018-05-21T19:19:03.937Z,51.90
2018-05-21T19:20:40.497Z,52.00
2018-05-21T19:22:17.113Z,52.50
2018-05-21T19:23:53.882Z,52.90
2018-05-21T19:25:30.185Z,53.00
2018-05-21T19:27:07.293Z,53.10
2018-05-21T19:28:45.271Z,53.10
2018-05-21T19:30:23.646Z,53.10
2018-05-21T19:32:00.200Z,53.60
2018-05-21T19:33:36.937Z,53.50
2018-05-21T19:35:13.294Z,53.80
2018-05-21T19:36:50.074Z,54.10
2018-05-21T19:38:26.760Z,54.60
2018-05-21T19:40:03.191Z,54.60
2018-05-21T19:41:39.717Z,55.20
2018-05-21T19:43:16.541Z,55.70
2018-05-21T19:44:52.927Z,56.10
2018-05-21T19:46:29.698Z,56.20
2018-05-21T19:48:06.149Z,56.20
2018-05-21T19:49:42.541Z,56.50
2018-05-21T19:51:19.031Z,56.30
2018-05-21T19:52:55.541Z,56.40
2018-05-21T19:54:32.044Z,56.10
2018-05-21T19:56:08.888Z,56.30
2018-05-21T19:57:45.335Z,56.60
2018-05-21T19:59:21.755Z,56.90
2018-05-21T20:00:58.404Z,56.70
2018-05-21T20:02:35.999Z,56.90
2018-05-21T20:04:12.405Z,57.60
2018-05-21T20:05:49.285Z,57.70
2018-05-21T20:07:25.740Z,58.00
2018-05-21T20:09:02.567Z,58.00
2018-05-21T20:10:39.255Z,58.50
2018-05-21T20:12:15.690Z,59.00
2018-05-21T20:13:53.105Z,59.40
2018-05-21T20:15:30.177Z,59.50
2018-05-21T20:17:06.714Z,59.40
2018-05-21T20:18:43.106Z,59.60
2018-05-21T20:20:24.551Z,59.90
2018-05-21T20:22:01.408Z,60.10
2018-05-21T20:23:38.864Z,63.90
2018-05-21T20:25:15.204Z,64.00
2018-05-21T20:26:51.550Z,71.40
2018-05-21T20:28:28.499Z,78.70
2018-05-21T20:30:05.015Z,81.20
2018-05-21T20:31:41.663Z,86.40
2018-05-21T20:33:18.036Z,88.40
2018-05-21T20:34:55.312Z,89.60
2018-05-21T20:36:31.859Z,89.10
2018-05-21T20:38:08.272Z,89.60
2018-05-21T20:39:45.043Z,89.20
2018-05-21T20:41:22.663Z,90.30
2018-05-21T20:43:00.032Z,89.80
2018-05-21T20:44:36.554Z,90.70
2018-05-21T20:46:13.142Z,89.50
2018-05-21T20:47:50.297Z,90.20
2018-05-21T20:49:26.683Z,89.60
2018-05-21T20:51:03.380Z,88.90
2018-05-21T20:52:40.638Z,88.90
2018-05-21T20:54:18.282Z,87.10
2018-05-21T20:55:54.691Z,87.10
2018-05-21T20:57:31.241Z,86.70